sensor_id;sensor_type;location;lat;lon;timestamp;temperature;humidity
54680;DHT22;40578;53.178;5.846;2023-01-30T00:01:22;6.70;99.90
54680;DHT22;40578;53.178;5.846;2023-01-30T00:03:48;6.80;99.90
54680;DHT22;40578;53.178;5.846;2023-01-30T00:06:14;6.80;99.90
54680;DHT22;40578;53.178;5.846;2023-01-30T00:08:40;6.80;99.90
54680;DHT22;40578;53.178;5.846;2023-01-30T00:11:08;7.00;99.90
54680;DHT22;40578;53.178;5.846;2023-01-30T00:13:34;6.70;99.90
54680;DHT22;40578;53.178;5.846;2023-01-30T00:16:00;6.70;99.90
54680;DHT22;40578;53.178;5.846;2023-01-30T00:18:26;6.70;99.90
54680;DHT22;40578;53.178;5.846;2023-01-30T00:20:59;6.70;99.90
54680;DHT22;40578;53.178;5.846;2023-01-30T00:23:25;6.60;99.90
54680;DHT22;40578;53.178;5.846;2023-01-30T00:25:51;6.60;99.90
54680;DHT22;40578;53.178;5.846;2023-01-30T00:28:17;6.60;99.90
54680;DHT22;40578;53.178;5.846;2023-01-30T00:30:43;6.60;99.90
54680;DHT22;40578;53.178;5.846;2023-01-30T00:33:09;6.50;99.90
54680;DHT22;40578;53.178;5.846;2023-01-30T00:35:35;6.50;99.90
54680;DHT22;40578;53.178;5.846;2023-01-30T00:38:01;6.80;99.90
54680;DHT22;40578;53.178;5.846;2023-01-30T00:40:28;6.40;99.90
54680;DHT22;40578;53.178;5.846;2023-01-30T00:42:54;6.40;99.90
54680;DHT22;40578;53.178;5.846;2023-01-30T00:45:41;6.50;99.90
54680;DHT22;40578;53.178;5.846;2023-01-30T00:48:26;6.50;99.90
54680;DHT22;40578;53.178;5.846;2023-01-30T00:50:52;6.40;99.90
54680;DHT22;40578;53.178;5.846;2023-01-30T00:53:17;6.40;99.90
54680;DHT22;40578;53.178;5.846;2023-01-30T00:55:43;6.40;99.90
54680;DHT22;40578;53.178;5.846;2023-01-30T00:58:11;6.50;99.90
54680;DHT22;40578;53.178;5.846;2023-01-30T01:00:37;6.40;99.90
54680;DHT22;40578;53.178;5.846;2023-01-30T01:03:03;6.90;99.90
54680;DHT22;40578;53.178;5.846;2023-01-30T01:05:29;6.40;99.90
54680;DHT22;40578;53.178;5.846;2023-01-30T01:07:54;6.50;99.90
54680;DHT22;40578;53.178;5.846;2023-01-30T01:10:21;6.50;99.90
54680;DHT22;40578;53.178;5.846;2023-01-30T01:12:48;6.50;99.90
54680;DHT22;40578;53.178;5.846;2023-01-30T01:15:14;6.50;99.90
54680;DHT22;40578;53.178;5.846;2023-01-30T01:17:41;6.50;99.90
54680;DHT22;40578;53.178;5.846;2023-01-30T01:20:08;6.50;99.90
54680;DHT22;40578;53.178;5.846;2023-01-30T01:22:34;6.50;99.90
54680;DHT22;40578;53.178;5.846;2023-01-30T01:25:00;6.40;99.90
54680;DHT22;40578;53.178;5.846;2023-01-30T01:27:25;6.40;99.90
54680;DHT22;40578;53.178;5.846;2023-01-30T01:29:51;6.40;99.90
54680;DHT22;40578;53.178;5.846;2023-01-30T01:32:17;6.40;99.90
54680;DHT22;40578;53.178;5.846;2023-01-30T01:34:44;6.50;99.90
54680;DHT22;40578;53.178;5.846;2023-01-30T01:37:09;6.50;99.90
54680;DHT22;40578;53.178;5.846;2023-01-30T01:39:36;6.40;99.90
54680;DHT22;40578;53.178;5.846;2023-01-30T01:42:23;6.50;99.90
54680;DHT22;40578;53.178;5.846;2023-01-30T01:47:34;6.40;99.90
54680;DHT22;40578;53.178;5.846;2023-01-30T01:50:00;6.40;99.90
54680;DHT22;40578;53.178;5.846;2023-01-30T01:52:26;6.50;99.90
54680;DHT22;40578;53.178;5.846;2023-01-30T01:54:59;6.50;99.90
54680;DHT22;40578;53.178;5.846;2023-01-30T01:57:33;6.50;99.90
54680;DHT22;40578;53.178;5.846;2023-01-30T02:00:06;6.50;99.90
54680;DHT22;40578;53.178;5.846;2023-01-30T02:02:38;6.50;99.90
54680;DHT22;40578;53.178;5.846;2023-01-30T02:05:05;6.60;99.90
54680;DHT22;40578;53.178;5.846;2023-01-30T02:10:03;6.60;99.90
54680;DHT22;40578;53.178;5.846;2023-01-30T02:12:31;6.70;99.90
54680;DHT22;40578;53.178;5.846;2023-01-30T02:14:58;6.70;99.90
54680;DHT22;40578;53.178;5.846;2023-01-30T02:17:24;6.70;99.90
54680;DHT22;40578;53.178;5.846;2023-01-30T02:19:53;6.80;99.90
54680;DHT22;40578;53.178;5.846;2023-01-30T02:36:28;6.80;99.90
54680;DHT22;40578;53.178;5.846;2023-01-30T02:41:55;6.80;99.90
54680;DHT22;40578;53.178;5.846;2023-01-30T02:44:46;7.00;99.90
54680;DHT22;40578;53.178;5.846;2023-01-30T02:47:24;6.80;99.90
54680;DHT22;40578;53.178;5.846;2023-01-30T02:49:59;6.80;99.90
54680;DHT22;40578;53.178;5.846;2023-01-30T02:52:26;6.70;99.90
54680;DHT22;40578;53.178;5.846;2023-01-30T02:54:53;6.70;99.90
54680;DHT22;40578;53.178;5.846;2023-01-30T02:57:21;6.70;99.90
54680;DHT22;40578;53.178;5.846;2023-01-30T02:59:59;6.60;99.90
54680;DHT22;40578;53.178;5.846;2023-01-30T03:05:24;6.60;99.90
54680;DHT22;40578;53.178;5.846;2023-01-30T03:11:06;6.60;99.90
54680;DHT22;40578;53.178;5.846;2023-01-30T03:16:36;6.60;99.90
54680;DHT22;40578;53.178;5.846;2023-01-30T03:19:04;6.60;99.90
54680;DHT22;40578;53.178;5.846;2023-01-30T03:21:31;6.60;99.90
54680;DHT22;40578;53.178;5.846;2023-01-30T03:23:57;6.60;99.90
54680;DHT22;40578;53.178;5.846;2023-01-30T03:26:26;6.60;99.90
54680;DHT22;40578;53.178;5.846;2023-01-30T03:28:54;6.60;99.90
54680;DHT22;40578;53.178;5.846;2023-01-30T03:31:20;6.60;99.90
54680;DHT22;40578;53.178;5.846;2023-01-30T03:33:46;6.60;99.90
54680;DHT22;40578;53.178;5.846;2023-01-30T03:36:12;6.90;99.90
54680;DHT22;40578;53.178;5.846;2023-01-30T03:38:37;6.60;99.90
54680;DHT22;40578;53.178;5.846;2023-01-30T03:41:04;6.60;99.90
54680;DHT22;40578;53.178;5.846;2023-01-30T03:43:30;7.10;99.90
54680;DHT22;40578;53.178;5.846;2023-01-30T03:45:55;6.60;99.90
54680;DHT22;40578;53.178;5.846;2023-01-30T03:48:21;7.10;99.90
54680;DHT22;40578;53.178;5.846;2023-01-30T03:50:47;6.70;99.90
54680;DHT22;40578;53.178;5.846;2023-01-30T03:53:12;6.80;99.90
54680;DHT22;40578;53.178;5.846;2023-01-30T03:55:38;6.70;99.90
54680;DHT22;40578;53.178;5.846;2023-01-30T03:58:04;6.60;99.90
54680;DHT22;40578;53.178;5.846;2023-01-30T04:00:30;6.50;99.90
54680;DHT22;40578;53.178;5.846;2023-01-30T04:02:56;6.40;99.90
54680;DHT22;40578;53.178;5.846;2023-01-30T04:05:22;6.40;99.90
54680;DHT22;40578;53.178;5.846;2023-01-30T04:07:48;7.10;99.90
54680;DHT22;40578;53.178;5.846;2023-01-30T04:10:15;6.80;99.90
54680;DHT22;40578;53.178;5.846;2023-01-30T04:12:42;6.30;99.90
54680;DHT22;40578;53.178;5.846;2023-01-30T04:15:09;6.20;99.90
54680;DHT22;40578;53.178;5.846;2023-01-30T04:17:34;6.20;99.90
54680;DHT22;40578;53.178;5.846;2023-01-30T04:20:00;6.20;99.90
54680;DHT22;40578;53.178;5.846;2023-01-30T04:22:26;6.20;99.90
54680;DHT22;40578;53.178;5.846;2023-01-30T04:24:51;6.20;99.90
54680;DHT22;40578;53.178;5.846;2023-01-30T04:27:17;6.20;99.90
54680;DHT22;40578;53.178;5.846;2023-01-30T04:29:43;7.10;99.90
54680;DHT22;40578;53.178;5.846;2023-01-30T04:32:08;6.20;99.90
54680;DHT22;40578;53.178;5.846;2023-01-30T04:34:34;6.20;99.90
54680;DHT22;40578;53.178;5.846;2023-01-30T04:36:59;6.20;99.90
54680;DHT22;40578;53.178;5.846;2023-01-30T04:39:25;6.40;99.90
54680;DHT22;40578;53.178;5.846;2023-01-30T04:41:51;6.10;99.90
54680;DHT22;40578;53.178;5.846;2023-01-30T04:44:16;6.10;99.90
54680;DHT22;40578;53.178;5.846;2023-01-30T04:46:42;6.10;99.90
54680;DHT22;40578;53.178;5.846;2023-01-30T04:49:09;6.10;99.90
54680;DHT22;40578;53.178;5.846;2023-01-30T04:51:35;6.10;99.90
54680;DHT22;40578;53.178;5.846;2023-01-30T04:54:01;6.10;99.90
54680;DHT22;40578;53.178;5.846;2023-01-30T04:56:26;6.10;99.90
54680;DHT22;40578;53.178;5.846;2023-01-30T04:58:52;6.10;99.90
54680;DHT22;40578;53.178;5.846;2023-01-30T05:01:24;6.00;99.90
54680;DHT22;40578;53.178;5.846;2023-01-30T05:03:51;6.00;99.90
54680;DHT22;40578;53.178;5.846;2023-01-30T05:06:17;6.00;99.90
54680;DHT22;40578;53.178;5.846;2023-01-30T05:08:42;6.00;99.90
54680;DHT22;40578;53.178;5.846;2023-01-30T05:11:08;6.00;99.90
54680;DHT22;40578;53.178;5.846;2023-01-30T05:13:34;5.90;99.90
54680;DHT22;40578;53.178;5.846;2023-01-30T05:15:59;5.80;99.90
54680;DHT22;40578;53.178;5.846;2023-01-30T05:18:25;5.90;99.90
54680;DHT22;40578;53.178;5.846;2023-01-30T05:20:50;5.80;99.90
54680;DHT22;40578;53.178;5.846;2023-01-30T05:23:16;5.70;99.90
54680;DHT22;40578;53.178;5.846;2023-01-30T05:25:41;6.70;99.90
54680;DHT22;40578;53.178;5.846;2023-01-30T05:28:07;5.90;99.90
54680;DHT22;40578;53.178;5.846;2023-01-30T05:30:33;5.90;99.90
54680;DHT22;40578;53.178;5.846;2023-01-30T05:32:58;5.90;99.90
54680;DHT22;40578;53.178;5.846;2023-01-30T05:35:24;5.80;99.90
54680;DHT22;40578;53.178;5.846;2023-01-30T05:37:50;5.80;99.90
54680;DHT22;40578;53.178;5.846;2023-01-30T05:40:16;6.60;99.90
54680;DHT22;40578;53.178;5.846;2023-01-30T05:42:42;5.80;99.90
54680;DHT22;40578;53.178;5.846;2023-01-30T05:45:08;5.70;99.90
54680;DHT22;40578;53.178;5.846;2023-01-30T05:47:34;5.80;99.90
54680;DHT22;40578;53.178;5.846;2023-01-30T05:49:59;5.80;99.90
54680;DHT22;40578;53.178;5.846;2023-01-30T05:52:25;5.90;99.90
54680;DHT22;40578;53.178;5.846;2023-01-30T05:54:51;6.30;99.90
54680;DHT22;40578;53.178;5.846;2023-01-30T05:57:16;6.00;99.90
54680;DHT22;40578;53.178;5.846;2023-01-30T05:59:42;6.00;99.90
54680;DHT22;40578;53.178;5.846;2023-01-30T06:02:08;6.00;99.90
54680;DHT22;40578;53.178;5.846;2023-01-30T06:04:33;6.00;99.90
54680;DHT22;40578;53.178;5.846;2023-01-30T06:07:00;6.00;99.90
54680;DHT22;40578;53.178;5.846;2023-01-30T06:09:25;6.00;99.90
54680;DHT22;40578;53.178;5.846;2023-01-30T06:11:51;6.10;99.90
54680;DHT22;40578;53.178;5.846;2023-01-30T06:14:17;6.10;99.90
54680;DHT22;40578;53.178;5.846;2023-01-30T06:16:42;6.10;99.90
54680;DHT22;40578;53.178;5.846;2023-01-30T06:19:08;6.10;99.90
54680;DHT22;40578;53.178;5.846;2023-01-30T06:21:34;6.20;99.90
54680;DHT22;40578;53.178;5.846;2023-01-30T06:23:59;6.10;99.90
54680;DHT22;40578;53.178;5.846;2023-01-30T06:26:25;6.10;99.90
54680;DHT22;40578;53.178;5.846;2023-01-30T06:28:50;6.10;99.90
54680;DHT22;40578;53.178;5.846;2023-01-30T06:31:16;6.00;99.90
54680;DHT22;40578;53.178;5.846;2023-01-30T06:33:42;6.10;99.90
54680;DHT22;40578;53.178;5.846;2023-01-30T06:36:08;6.10;99.90
54680;DHT22;40578;53.178;5.846;2023-01-30T06:38:34;6.00;99.90
54680;DHT22;40578;53.178;5.846;2023-01-30T06:41:00;5.90;99.90
54680;DHT22;40578;53.178;5.846;2023-01-30T06:43:25;6.00;99.90
54680;DHT22;40578;53.178;5.846;2023-01-30T06:45:51;6.00;99.90
54680;DHT22;40578;53.178;5.846;2023-01-30T06:48:17;7.10;99.90
54680;DHT22;40578;53.178;5.846;2023-01-30T06:50:45;6.00;99.90
54680;DHT22;40578;53.178;5.846;2023-01-30T06:53:11;6.00;99.90
54680;DHT22;40578;53.178;5.846;2023-01-30T06:55:37;6.00;99.90
54680;DHT22;40578;53.178;5.846;2023-01-30T06:58:13;6.00;99.90
54680;DHT22;40578;53.178;5.846;2023-01-30T07:00:40;6.10;99.90
54680;DHT22;40578;53.178;5.846;2023-01-30T07:03:10;6.10;99.90
54680;DHT22;40578;53.178;5.846;2023-01-30T07:05:40;6.10;99.90
54680;DHT22;40578;53.178;5.846;2023-01-30T07:08:06;6.10;99.90
54680;DHT22;40578;53.178;5.846;2023-01-30T07:10:31;6.10;99.90
54680;DHT22;40578;53.178;5.846;2023-01-30T07:12:58;6.00;99.90
54680;DHT22;40578;53.178;5.846;2023-01-30T07:15:24;6.00;99.90
54680;DHT22;40578;53.178;5.846;2023-01-30T07:17:50;6.20;99.90
54680;DHT22;40578;53.178;5.846;2023-01-30T07:20:16;6.80;99.90
54680;DHT22;40578;53.178;5.846;2023-01-30T07:22:41;6.10;99.90
54680;DHT22;40578;53.178;5.846;2023-01-30T07:25:07;6.00;99.90
54680;DHT22;40578;53.178;5.846;2023-01-30T07:27:33;6.00;99.90
54680;DHT22;40578;53.178;5.846;2023-01-30T07:29:59;6.00;99.90
54680;DHT22;40578;53.178;5.846;2023-01-30T07:32:25;5.90;99.90
54680;DHT22;40578;53.178;5.846;2023-01-30T07:34:50;6.00;99.90
54680;DHT22;40578;53.178;5.846;2023-01-30T07:37:16;6.00;99.90
54680;DHT22;40578;53.178;5.846;2023-01-30T07:39:41;6.10;99.90
54680;DHT22;40578;53.178;5.846;2023-01-30T07:42:07;6.20;99.90
54680;DHT22;40578;53.178;5.846;2023-01-30T07:44:33;6.20;99.90
54680;DHT22;40578;53.178;5.846;2023-01-30T07:46:59;6.20;99.90
54680;DHT22;40578;53.178;5.846;2023-01-30T07:49:25;6.20;99.90
54680;DHT22;40578;53.178;5.846;2023-01-30T07:51:51;6.20;99.90
54680;DHT22;40578;53.178;5.846;2023-01-30T07:54:17;6.10;99.90
54680;DHT22;40578;53.178;5.846;2023-01-30T07:56:42;6.20;99.90
54680;DHT22;40578;53.178;5.846;2023-01-30T07:59:10;6.10;99.90
54680;DHT22;40578;53.178;5.846;2023-01-30T08:01:35;6.10;99.90
54680;DHT22;40578;53.178;5.846;2023-01-30T08:04:01;6.10;99.90
54680;DHT22;40578;53.178;5.846;2023-01-30T08:06:26;6.10;99.90
54680;DHT22;40578;53.178;5.846;2023-01-30T08:08:52;6.10;99.90
54680;DHT22;40578;53.178;5.846;2023-01-30T08:11:18;6.20;99.90
54680;DHT22;40578;53.178;5.846;2023-01-30T08:13:43;6.20;99.90
54680;DHT22;40578;53.178;5.846;2023-01-30T08:16:09;6.20;99.90
54680;DHT22;40578;53.178;5.846;2023-01-30T08:18:35;6.20;99.90
54680;DHT22;40578;53.178;5.846;2023-01-30T08:21:03;6.20;99.90
54680;DHT22;40578;53.178;5.846;2023-01-30T08:23:30;7.30;99.90
54680;DHT22;40578;53.178;5.846;2023-01-30T08:25:57;6.30;99.90
54680;DHT22;40578;53.178;5.846;2023-01-30T08:28:23;6.20;99.90
54680;DHT22;40578;53.178;5.846;2023-01-30T08:30:49;6.30;99.90
54680;DHT22;40578;53.178;5.846;2023-01-30T08:33:18;6.30;99.90
54680;DHT22;40578;53.178;5.846;2023-01-30T08:35:43;6.30;99.90
54680;DHT22;40578;53.178;5.846;2023-01-30T08:38:09;6.30;99.90
54680;DHT22;40578;53.178;5.846;2023-01-30T08:40:35;8.30;99.90
54680;DHT22;40578;53.178;5.846;2023-01-30T08:43:01;6.40;99.90
54680;DHT22;40578;53.178;5.846;2023-01-30T08:45:27;6.40;99.90
54680;DHT22;40578;53.178;5.846;2023-01-30T08:47:58;6.40;99.90
54680;DHT22;40578;53.178;5.846;2023-01-30T08:50:23;6.50;99.90
54680;DHT22;40578;53.178;5.846;2023-01-30T08:52:49;6.50;99.90
54680;DHT22;40578;53.178;5.846;2023-01-30T08:55:15;6.40;99.90
54680;DHT22;40578;53.178;5.846;2023-01-30T08:57:40;6.40;99.90
54680;DHT22;40578;53.178;5.846;2023-01-30T09:00:07;6.40;99.90
54680;DHT22;40578;53.178;5.846;2023-01-30T09:02:33;6.40;99.90
54680;DHT22;40578;53.178;5.846;2023-01-30T09:04:59;6.50;99.90
54680;DHT22;40578;53.178;5.846;2023-01-30T09:07:24;6.60;99.90
54680;DHT22;40578;53.178;5.846;2023-01-30T09:09:52;6.60;99.90
54680;DHT22;40578;53.178;5.846;2023-01-30T09:12:17;6.70;99.90
54680;DHT22;40578;53.178;5.846;2023-01-30T09:14:43;6.70;99.90
54680;DHT22;40578;53.178;5.846;2023-01-30T09:17:08;6.70;99.90
54680;DHT22;40578;53.178;5.846;2023-01-30T09:19:34;6.70;99.90
54680;DHT22;40578;53.178;5.846;2023-01-30T09:22:01;6.70;99.90
54680;DHT22;40578;53.178;5.846;2023-01-30T09:24:27;6.60;99.90
54680;DHT22;40578;53.178;5.846;2023-01-30T09:26:53;6.70;99.90
54680;DHT22;40578;53.178;5.846;2023-01-30T09:29:22;6.70;99.90
54680;DHT22;40578;53.178;5.846;2023-01-30T09:31:48;6.70;99.90
54680;DHT22;40578;53.178;5.846;2023-01-30T09:34:14;6.70;99.90
54680;DHT22;40578;53.178;5.846;2023-01-30T09:36:41;6.70;99.90
54680;DHT22;40578;53.178;5.846;2023-01-30T09:39:07;6.70;99.90
54680;DHT22;40578;53.178;5.846;2023-01-30T09:44:42;6.70;99.90
54680;DHT22;40578;53.178;5.846;2023-01-30T09:47:11;6.80;99.90
54680;DHT22;40578;53.178;5.846;2023-01-30T09:55:39;6.90;99.90
54680;DHT22;40578;53.178;5.846;2023-01-30T09:57:40;6.90;99.90
54680;DHT22;40578;53.178;5.846;2023-01-30T10:05:50;7.10;99.90
54680;DHT22;40578;53.178;5.846;2023-01-30T10:16:15;7.20;99.90
54680;DHT22;40578;53.178;5.846;2023-01-30T10:26:23;7.40;99.90
54680;DHT22;40578;53.178;5.846;2023-01-30T10:29:14;7.50;99.90
54680;DHT22;40578;53.178;5.846;2023-01-30T10:31:48;7.50;99.90
54680;DHT22;40578;53.178;5.846;2023-01-30T10:34:31;7.60;99.90
54680;DHT22;40578;53.178;5.846;2023-01-30T10:37:16;8.50;99.90
54680;DHT22;40578;53.178;5.846;2023-01-30T10:42:20;7.30;99.90
54680;DHT22;40578;53.178;5.846;2023-01-30T10:44:48;7.10;99.90
54680;DHT22;40578;53.178;5.846;2023-01-30T10:47:50;6.90;99.90
54680;DHT22;40578;53.178;5.846;2023-01-30T10:50:18;6.70;99.90
54680;DHT22;40578;53.178;5.846;2023-01-30T10:58:42;6.70;99.90
54680;DHT22;40578;53.178;5.846;2023-01-30T11:01:23;6.70;99.90
54680;DHT22;40578;53.178;5.846;2023-01-30T11:03:57;6.70;99.90
54680;DHT22;40578;53.178;5.846;2023-01-30T11:06:26;6.80;99.90
54680;DHT22;40578;53.178;5.846;2023-01-30T11:08:53;6.80;99.90
54680;DHT22;40578;53.178;5.846;2023-01-30T11:14:57;7.10;99.90
54680;DHT22;40578;53.178;5.846;2023-01-30T11:17:40;7.30;99.90
54680;DHT22;40578;53.178;5.846;2023-01-30T11:20:21;7.40;99.90
54680;DHT22;40578;53.178;5.846;2023-01-30T11:23:04;7.20;99.90
54680;DHT22;40578;53.178;5.846;2023-01-30T11:25:30;6.50;99.90
54680;DHT22;40578;53.178;5.846;2023-01-30T11:28:02;6.30;99.90
54680;DHT22;40578;53.178;5.846;2023-01-30T11:30:33;6.00;99.90
54680;DHT22;40578;53.178;5.846;2023-01-30T11:33:12;5.90;99.90
54680;DHT22;40578;53.178;5.846;2023-01-30T11:35:43;5.80;99.90
54680;DHT22;40578;53.178;5.846;2023-01-30T11:38:19;5.80;99.90
54680;DHT22;40578;53.178;5.846;2023-01-30T11:40:45;5.70;99.90
54680;DHT22;40578;53.178;5.846;2023-01-30T11:43:12;5.80;99.90
54680;DHT22;40578;53.178;5.846;2023-01-30T11:45:47;5.90;99.90
54680;DHT22;40578;53.178;5.846;2023-01-30T11:48:17;6.00;99.90
54680;DHT22;40578;53.178;5.846;2023-01-30T11:50:46;6.10;99.90
54680;DHT22;40578;53.178;5.846;2023-01-30T11:54:06;6.20;99.90
54680;DHT22;40578;53.178;5.846;2023-01-30T11:58:58;6.40;99.90
54680;DHT22;40578;53.178;5.846;2023-01-30T12:01:36;6.50;99.90
54680;DHT22;40578;53.178;5.846;2023-01-30T12:04:07;7.20;99.90
54680;DHT22;40578;53.178;5.846;2023-01-30T12:06:36;6.70;99.90
54680;DHT22;40578;53.178;5.846;2023-01-30T12:09:03;6.70;99.90
54680;DHT22;40578;53.178;5.846;2023-01-30T12:17:07;7.00;99.90
54680;DHT22;40578;53.178;5.846;2023-01-30T12:19:58;6.90;99.90
54680;DHT22;40578;53.178;5.846;2023-01-30T12:22:48;6.90;99.90
54680;DHT22;40578;53.178;5.846;2023-01-30T12:25:22;7.00;99.90
54680;DHT22;40578;53.178;5.846;2023-01-30T12:28:02;7.00;99.90
54680;DHT22;40578;53.178;5.846;2023-01-30T12:30:36;7.00;99.90
54680;DHT22;40578;53.178;5.846;2023-01-30T12:33:05;7.00;99.90
54680;DHT22;40578;53.178;5.846;2023-01-30T12:35:44;7.10;99.90
54680;DHT22;40578;53.178;5.846;2023-01-30T12:57:30;7.40;99.90
54680;DHT22;40578;53.178;5.846;2023-01-30T13:03:21;7.50;99.90
54680;DHT22;40578;53.178;5.846;2023-01-30T13:05:55;7.40;99.90
54680;DHT22;40578;53.178;5.846;2023-01-30T13:22:44;7.70;99.90
54680;DHT22;40578;53.178;5.846;2023-01-30T13:25:57;7.80;99.90
54680;DHT22;40578;53.178;5.846;2023-01-30T13:28:18;7.70;99.90
54680;DHT22;40578;53.178;5.846;2023-01-30T13:30:48;7.80;99.90
54680;DHT22;40578;53.178;5.846;2023-01-30T13:33:31;7.80;99.90
54680;DHT22;40578;53.178;5.846;2023-01-30T13:36:17;7.80;99.90
54680;DHT22;40578;53.178;5.846;2023-01-30T13:41:22;8.00;99.90
54680;DHT22;40578;53.178;5.846;2023-01-30T13:43:51;7.90;99.90
54680;DHT22;40578;53.178;5.846;2023-01-30T13:46:25;7.90;99.90
54680;DHT22;40578;53.178;5.846;2023-01-30T13:49:13;8.00;99.90
54680;DHT22;40578;53.178;5.846;2023-01-30T13:51:48;7.90;99.90
54680;DHT22;40578;53.178;5.846;2023-01-30T13:59:48;7.80;99.90
54680;DHT22;40578;53.178;5.846;2023-01-30T14:02:23;7.80;99.90
54680;DHT22;40578;53.178;5.846;2023-01-30T14:04:54;7.80;99.90
54680;DHT22;40578;53.178;5.846;2023-01-30T14:10:04;7.90;99.90
54680;DHT22;40578;53.178;5.846;2023-01-30T14:15:26;7.80;99.90
54680;DHT22;40578;53.178;5.846;2023-01-30T14:18:23;7.80;99.90
54680;DHT22;40578;53.178;5.846;2023-01-30T14:20:50;7.70;99.90
54680;DHT22;40578;53.178;5.846;2023-01-30T14:25:52;7.70;99.90
54680;DHT22;40578;53.178;5.846;2023-01-30T14:38:37;7.60;99.90
54680;DHT22;40578;53.178;5.846;2023-01-30T14:56:51;7.40;99.90
54680;DHT22;40578;53.178;5.846;2023-01-30T15:04:45;7.90;99.90
54680;DHT22;40578;53.178;5.846;2023-01-30T15:07:22;7.30;99.90
54680;DHT22;40578;53.178;5.846;2023-01-30T15:21:54;7.10;99.90
54680;DHT22;40578;53.178;5.846;2023-01-30T15:27:18;7.10;99.90
54680;DHT22;40578;53.178;5.846;2023-01-30T15:32:32;7.00;99.90
54680;DHT22;40578;53.178;5.846;2023-01-30T15:35:00;7.00;99.90
54680;DHT22;40578;53.178;5.846;2023-01-30T15:37:33;7.10;99.90
54680;DHT22;40578;53.178;5.846;2023-01-30T15:43:17;7.10;99.90
54680;DHT22;40578;53.178;5.846;2023-01-30T15:46:25;8.60;99.90
54680;DHT22;40578;53.178;5.846;2023-01-30T15:52:00;7.00;99.90
54680;DHT22;40578;53.178;5.846;2023-01-30T15:54:26;6.90;99.90
54680;DHT22;40578;53.178;5.846;2023-01-30T15:56:53;7.60;99.90
54680;DHT22;40578;53.178;5.846;2023-01-30T15:59:33;7.40;99.90
54680;DHT22;40578;53.178;5.846;2023-01-30T16:02:06;7.60;99.90
54680;DHT22;40578;53.178;5.846;2023-01-30T16:04:32;6.50;99.90
54680;DHT22;40578;53.178;5.846;2023-01-30T16:06:58;6.60;99.90
54680;DHT22;40578;53.178;5.846;2023-01-30T16:09:25;6.60;99.90
54680;DHT22;40578;53.178;5.846;2023-01-30T16:11:51;7.60;99.90
54680;DHT22;40578;53.178;5.846;2023-01-30T16:14:19;6.60;99.90
54680;DHT22;40578;53.178;5.846;2023-01-30T16:16:54;7.00;99.90
54680;DHT22;40578;53.178;5.846;2023-01-30T16:19:28;6.40;99.90
54680;DHT22;40578;53.178;5.846;2023-01-30T16:21:57;6.50;99.90
54680;DHT22;40578;53.178;5.846;2023-01-30T16:24:27;6.40;99.90
54680;DHT22;40578;53.178;5.846;2023-01-30T16:26:56;6.50;99.90
54680;DHT22;40578;53.178;5.846;2023-01-30T16:29:25;6.30;99.90
54680;DHT22;40578;53.178;5.846;2023-01-30T16:31:52;6.30;99.90
54680;DHT22;40578;53.178;5.846;2023-01-30T16:34:36;6.20;99.90
54680;DHT22;40578;53.178;5.846;2023-01-30T16:37:18;6.10;99.90
54680;DHT22;40578;53.178;5.846;2023-01-30T16:40:11;6.20;99.90
54680;DHT22;40578;53.178;5.846;2023-01-30T16:42:40;6.10;99.90
54680;DHT22;40578;53.178;5.846;2023-01-30T16:45:32;6.00;99.90
54680;DHT22;40578;53.178;5.846;2023-01-30T16:50:43;6.00;99.90
54680;DHT22;40578;53.178;5.846;2023-01-30T16:53:17;6.80;99.90
54680;DHT22;40578;53.178;5.846;2023-01-30T16:58:26;6.00;99.90
54680;DHT22;40578;53.178;5.846;2023-01-30T17:00:57;7.30;99.90
54680;DHT22;40578;53.178;5.846;2023-01-30T17:03:35;6.00;99.90
54680;DHT22;40578;53.178;5.846;2023-01-30T17:06:29;5.90;99.90
54680;DHT22;40578;53.178;5.846;2023-01-30T17:08:58;5.90;99.90
54680;DHT22;40578;53.178;5.846;2023-01-30T17:11:41;5.90;99.90
54680;DHT22;40578;53.178;5.846;2023-01-30T17:14:21;5.80;99.90
54680;DHT22;40578;53.178;5.846;2023-01-30T17:19:30;5.90;99.90
54680;DHT22;40578;53.178;5.846;2023-01-30T17:21:58;5.90;99.90
54680;DHT22;40578;53.178;5.846;2023-01-30T17:24:24;6.00;99.90
54680;DHT22;40578;53.178;5.846;2023-01-30T17:26:53;6.00;99.90
54680;DHT22;40578;53.178;5.846;2023-01-30T17:29:24;6.10;99.90
54680;DHT22;40578;53.178;5.846;2023-01-30T17:31:50;6.00;99.90
54680;DHT22;40578;53.178;5.846;2023-01-30T17:34:17;6.00;99.90
54680;DHT22;40578;53.178;5.846;2023-01-30T17:36:45;6.00;99.90
54680;DHT22;40578;53.178;5.846;2023-01-30T17:39:13;6.10;99.90
54680;DHT22;40578;53.178;5.846;2023-01-30T17:41:41;6.10;99.90
54680;DHT22;40578;53.178;5.846;2023-01-30T17:44:07;6.90;99.90
54680;DHT22;40578;53.178;5.846;2023-01-30T17:46:38;8.20;99.90
54680;DHT22;40578;53.178;5.846;2023-01-30T17:49:05;6.10;99.90
54680;DHT22;40578;53.178;5.846;2023-01-30T17:51:32;6.10;99.90
54680;DHT22;40578;53.178;5.846;2023-01-30T17:53:58;6.20;99.90
54680;DHT22;40578;53.178;5.846;2023-01-30T17:56:31;6.80;99.90
54680;DHT22;40578;53.178;5.846;2023-01-30T17:59:01;6.10;99.90
54680;DHT22;40578;53.178;5.846;2023-01-30T18:01:26;6.10;99.90
54680;DHT22;40578;53.178;5.846;2023-01-30T18:03:52;6.10;99.90
54680;DHT22;40578;53.178;5.846;2023-01-30T18:06:19;6.10;99.90
54680;DHT22;40578;53.178;5.846;2023-01-30T18:08:44;6.10;99.90
54680;DHT22;40578;53.178;5.846;2023-01-30T18:11:10;6.10;99.90
54680;DHT22;40578;53.178;5.846;2023-01-30T18:13:40;6.00;99.90
54680;DHT22;40578;53.178;5.846;2023-01-30T18:16:20;6.10;99.90
54680;DHT22;40578;53.178;5.846;2023-01-30T18:18:46;6.00;99.90
54680;DHT22;40578;53.178;5.846;2023-01-30T18:21:12;6.00;99.90
54680;DHT22;40578;53.178;5.846;2023-01-30T18:23:39;6.70;99.90
54680;DHT22;40578;53.178;5.846;2023-01-30T18:26:05;6.10;99.90
54680;DHT22;40578;53.178;5.846;2023-01-30T18:28:32;5.80;99.90
54680;DHT22;40578;53.178;5.846;2023-01-30T18:30:58;5.80;99.90
54680;DHT22;40578;53.178;5.846;2023-01-30T18:33:24;5.80;99.90
54680;DHT22;40578;53.178;5.846;2023-01-30T18:35:49;5.80;99.90
54680;DHT22;40578;53.178;5.846;2023-01-30T18:38:15;5.80;99.90
54680;DHT22;40578;53.178;5.846;2023-01-30T18:40:40;5.80;99.90
54680;DHT22;40578;53.178;5.846;2023-01-30T18:43:06;6.50;99.90
54680;DHT22;40578;53.178;5.846;2023-01-30T18:45:32;6.10;99.90
54680;DHT22;40578;53.178;5.846;2023-01-30T18:47:58;5.70;99.90
54680;DHT22;40578;53.178;5.846;2023-01-30T18:50:24;5.60;99.90
54680;DHT22;40578;53.178;5.846;2023-01-30T18:52:49;6.40;99.90
54680;DHT22;40578;53.178;5.846;2023-01-30T18:55:15;5.60;99.90
54680;DHT22;40578;53.178;5.846;2023-01-30T18:57:41;5.50;99.90
54680;DHT22;40578;53.178;5.846;2023-01-30T19:00:07;5.50;99.90
54680;DHT22;40578;53.178;5.846;2023-01-30T19:02:33;5.40;99.90
54680;DHT22;40578;53.178;5.846;2023-01-30T19:04:59;5.30;99.90
54680;DHT22;40578;53.178;5.846;2023-01-30T19:07:24;5.30;99.90
54680;DHT22;40578;53.178;5.846;2023-01-30T19:09:50;5.40;99.90
54680;DHT22;40578;53.178;5.846;2023-01-30T19:12:16;5.40;99.90
54680;DHT22;40578;53.178;5.846;2023-01-30T19:15:00;5.40;99.90